sensor_id;sensor_type;location;lat;lon;timestamp;P1;durP1;ratioP1;P2;durP2;ratioP2
3207;SDS011;1616;52.394;9.756;2023-02-28T00:00:39;5.23;;;4.67;;
3207;SDS011;1616;52.394;9.756;2023-02-28T00:03:04;11.50;;;5.10;;
3207;SDS011;1616;52.394;9.756;2023-02-28T00:05:30;8.20;;;4.53;;
3207;SDS011;1616;52.394;9.756;2023-02-28T00:07:57;6.60;;;4.77;;
3207;SDS011;1616;52.394;9.756;2023-02-28T00:10:26;11.07;;;4.87;;
3207;SDS011;1616;52.394;9.756;2023-02-28T00:12:54;6.30;;;4.33;;
3207;SDS011;1616;52.394;9.756;2023-02-28T00:15:22;8.07;;;4.20;;
3207;SDS011;1616;52.394;9.756;2023-02-28T00:17:48;4.10;;;3.47;;
3207;SDS011;1616;52.394;9.756;2023-02-28T00:20:14;15.40;;;4.50;;
3207;SDS011;1616;52.394;9.756;2023-02-28T00:22:41;5.23;;;4.40;;
3207;SDS011;1616;52.394;9.756;2023-02-28T00:25:09;5.47;;;4.30;;
3207;SDS011;1616;52.394;9.756;2023-02-28T00:27:37;5.20;;;4.70;;
3207;SDS011;1616;52.394;9.756;2023-02-28T00:30:04;4.70;;;3.90;;
3207;SDS011;1616;52.394;9.756;2023-02-28T00:32:32;5.07;;;4.70;;
3207;SDS011;1616;52.394;9.756;2023-02-28T00:34:59;6.87;;;3.73;;
3207;SDS011;1616;52.394;9.756;2023-02-28T00:37:25;4.50;;;4.17;;
3207;SDS011;1616;52.394;9.756;2023-02-28T00:39:52;3.90;;;3.60;;
3207;SDS011;1616;52.394;9.756;2023-02-28T00:42:18;6.87;;;3.87;;
3207;SDS011;1616;52.394;9.756;2023-02-28T00:44:43;5.33;;;3.87;;
3207;SDS011;1616;52.394;9.756;2023-02-28T00:47:09;4.87;;;4.03;;
3207;SDS011;1616;52.394;9.756;2023-02-28T00:49:35;4.33;;;3.93;;
3207;SDS011;1616;52.394;9.756;2023-02-28T00:52:00;4.50;;;4.10;;
3207;SDS011;1616;52.394;9.756;2023-02-28T00:54:26;7.10;;;4.07;;
3207;SDS011;1616;52.394;9.756;2023-02-28T00:56:52;7.33;;;4.83;;
3207;SDS011;1616;52.394;9.756;2023-02-28T00:59:17;5.20;;;4.70;;
3207;SDS011;1616;52.394;9.756;2023-02-28T01:01:44;11.40;;;5.23;;
3207;SDS011;1616;52.394;9.756;2023-02-28T01:04:10;13.07;;;5.10;;
3207;SDS011;1616;52.394;9.756;2023-02-28T01:06:36;7.27;;;5.03;;
3207;SDS011;1616;52.394;9.756;2023-02-28T01:09:03;9.73;;;5.00;;
3207;SDS011;1616;52.394;9.756;2023-02-28T01:11:30;11.03;;;7.47;;
3207;SDS011;1616;52.394;9.756;2023-02-28T01:13:56;11.33;;;6.37;;
3207;SDS011;1616;52.394;9.756;2023-02-28T01:16:22;6.43;;;5.50;;
3207;SDS011;1616;52.394;9.756;2023-02-28T01:18:48;10.97;;;6.80;;
3207;SDS011;1616;52.394;9.756;2023-02-28T01:21:14;12.80;;;6.50;;
3207;SDS011;1616;52.394;9.756;2023-02-28T01:23:42;7.63;;;5.87;;
3207;SDS011;1616;52.394;9.756;2023-02-28T01:26:09;9.00;;;6.93;;
3207;SDS011;1616;52.394;9.756;2023-02-28T01:28:36;10.97;;;6.93;;
3207;SDS011;1616;52.394;9.756;2023-02-28T01:31:02;8.13;;;6.27;;
3207;SDS011;1616;52.394;9.756;2023-02-28T01:33:28;14.93;;;8.30;;
3207;SDS011;1616;52.394;9.756;2023-02-28T01:35:57;10.20;;;7.57;;
3207;SDS011;1616;52.394;9.756;2023-02-28T01:38:43;10.10;;;7.10;;
3207;SDS011;1616;52.394;9.756;2023-02-28T01:41:10;12.37;;;6.60;;
3207;SDS011;1616;52.394;9.756;2023-02-28T01:46:10;11.47;;;6.20;;
3207;SDS011;1616;52.394;9.756;2023-02-28T01:48:38;8.97;;;6.07;;
3207;SDS011;1616;52.394;9.756;2023-02-28T01:51:21;10.60;;;6.40;;
3207;SDS011;1616;52.394;9.756;2023-02-28T01:54:11;8.13;;;6.70;;
3207;SDS011;1616;52.394;9.756;2023-02-28T01:56:48;11.63;;;7.47;;
3207;SDS011;1616;52.394;9.756;2023-02-28T01:59:22;9.90;;;6.60;;
3207;SDS011;1616;52.394;9.756;2023-02-28T02:01:55;15.07;;;8.37;;
3207;SDS011;1616;52.394;9.756;2023-02-28T02:04:21;9.73;;;7.67;;
3207;SDS011;1616;52.394;9.756;2023-02-28T02:06:51;12.60;;;7.83;;
3207;SDS011;1616;52.394;9.756;2023-02-28T02:09:17;12.20;;;8.00;;
3207;SDS011;1616;52.394;9.756;2023-02-28T02:11:43;11.37;;;7.20;;
3207;SDS011;1616;52.394;9.756;2023-02-28T02:22:43;9.80;;;7.00;;
3207;SDS011;1616;52.394;9.756;2023-02-28T02:33:59;11.20;;;6.73;;
3207;SDS011;1616;52.394;9.756;2023-02-28T02:39:46;8.50;;;6.53;;
3207;SDS011;1616;52.394;9.756;2023-02-28T02:42:15;7.50;;;5.60;;
3207;SDS011;1616;52.394;9.756;2023-02-28T02:44:52;10.50;;;6.70;;
3207;SDS011;1616;52.394;9.756;2023-02-28T02:47:22;5.93;;;5.13;;
3207;SDS011;1616;52.394;9.756;2023-02-28T02:49:54;8.20;;;5.90;;
3207;SDS011;1616;52.394;9.756;2023-02-28T02:52:22;7.67;;;5.70;;
3207;SDS011;1616;52.394;9.756;2023-02-28T02:54:54;9.83;;;6.03;;
3207;SDS011;1616;52.394;9.756;2023-02-28T02:57:26;11.80;;;6.77;;
3207;SDS011;1616;52.394;9.756;2023-02-28T03:00:00;8.93;;;6.90;;
3207;SDS011;1616;52.394;9.756;2023-02-28T03:02:29;8.17;;;6.17;;
3207;SDS011;1616;52.394;9.756;2023-02-28T03:05:00;9.77;;;6.47;;
3207;SDS011;1616;52.394;9.756;2023-02-28T03:07:29;11.17;;;7.87;;
3207;SDS011;1616;52.394;9.756;2023-02-28T03:09:55;9.13;;;7.33;;
3207;SDS011;1616;52.394;9.756;2023-02-28T03:21:06;7.40;;;6.90;;
3207;SDS011;1616;52.394;9.756;2023-02-28T03:23:45;7.93;;;6.80;;
3207;SDS011;1616;52.394;9.756;2023-02-28T03:26:22;12.20;;;6.17;;
3207;SDS011;1616;52.394;9.756;2023-02-28T03:29:00;7.93;;;6.57;;
3207;SDS011;1616;52.394;9.756;2023-02-28T03:31:39;9.57;;;6.40;;
3207;SDS011;1616;52.394;9.756;2023-02-28T03:34:39;6.73;;;6.07;;
3207;SDS011;1616;52.394;9.756;2023-02-28T03:37:14;10.37;;;6.00;;
3207;SDS011;1616;52.394;9.756;2023-02-28T03:39:45;7.20;;;5.20;;
3207;SDS011;1616;52.394;9.756;2023-02-28T03:42:20;11.70;;;6.50;;
3207;SDS011;1616;52.394;9.756;2023-02-28T03:44:58;8.20;;;6.03;;
3207;SDS011;1616;52.394;9.756;2023-02-28T03:50:13;9.07;;;5.57;;
3207;SDS011;1616;52.394;9.756;2023-02-28T03:53:07;7.77;;;6.83;;
3207;SDS011;1616;52.394;9.756;2023-02-28T03:55:42;12.57;;;6.63;;
3207;SDS011;1616;52.394;9.756;2023-02-28T03:58:21;6.60;;;5.67;;
3207;SDS011;1616;52.394;9.756;2023-02-28T04:01:09;12.83;;;7.03;;
3207;SDS011;1616;52.394;9.756;2023-02-28T04:03:39;7.13;;;6.20;;
3207;SDS011;1616;52.394;9.756;2023-02-28T04:06:12;7.60;;;6.57;;
3207;SDS011;1616;52.394;9.756;2023-02-28T04:08:42;8.43;;;5.77;;
3207;SDS011;1616;52.394;9.756;2023-02-28T04:11:12;10.77;;;6.10;;
3207;SDS011;1616;52.394;9.756;2023-02-28T04:13:45;6.33;;;5.67;;
3207;SDS011;1616;52.394;9.756;2023-02-28T04:16:10;6.83;;;6.13;;
3207;SDS011;1616;52.394;9.756;2023-02-28T04:18:40;11.07;;;7.03;;
3207;SDS011;1616;52.394;9.756;2023-02-28T04:21:06;11.47;;;6.60;;
3207;SDS011;1616;52.394;9.756;2023-02-28T04:23:32;7.23;;;6.53;;
3207;SDS011;1616;52.394;9.756;2023-02-28T04:25:58;8.37;;;6.80;;
3207;SDS011;1616;52.394;9.756;2023-02-28T04:28:24;6.30;;;5.03;;
3207;SDS011;1616;52.394;9.756;2023-02-28T04:30:56;8.77;;;6.90;;
3207;SDS011;1616;52.394;9.756;2023-02-28T04:33:23;7.07;;;5.90;;
3207;SDS011;1616;52.394;9.756;2023-02-28T04:36:10;6.07;;;5.40;;
3207;SDS011;1616;52.394;9.756;2023-02-28T04:38:36;7.33;;;6.63;;
3207;SDS011;1616;52.394;9.756;2023-02-28T04:41:03;6.83;;;5.67;;
3207;SDS011;1616;52.394;9.756;2023-02-28T04:43:29;7.87;;;7.10;;
3207;SDS011;1616;52.394;9.756;2023-02-28T04:45:56;6.40;;;5.77;;
3207;SDS011;1616;52.394;9.756;2023-02-28T04:48:27;8.17;;;7.20;;
3207;SDS011;1616;52.394;9.756;2023-02-28T04:50:55;7.00;;;6.30;;
3207;SDS011;1616;52.394;9.756;2023-02-28T04:53:24;8.97;;;6.00;;
3207;SDS011;1616;52.394;9.756;2023-02-28T04:55:50;5.83;;;5.27;;
3207;SDS011;1616;52.394;9.756;2023-02-28T04:58:15;14.60;;;7.27;;
3207;SDS011;1616;52.394;9.756;2023-02-28T05:00:41;11.47;;;6.17;;
3207;SDS011;1616;52.394;9.756;2023-02-28T05:03:07;14.00;;;6.70;;
3207;SDS011;1616;52.394;9.756;2023-02-28T05:05:33;6.47;;;5.87;;
3207;SDS011;1616;52.394;9.756;2023-02-28T05:07:59;6.90;;;4.93;;
3207;SDS011;1616;52.394;9.756;2023-02-28T05:10:25;7.40;;;6.20;;
3207;SDS011;1616;52.394;9.756;2023-02-28T05:12:50;12.23;;;5.10;;
3207;SDS011;1616;52.394;9.756;2023-02-28T05:15:16;7.77;;;5.43;;
3207;SDS011;1616;52.394;9.756;2023-02-28T05:17:42;8.97;;;6.10;;
3207;SDS011;1616;52.394;9.756;2023-02-28T05:20:08;8.70;;;6.17;;
3207;SDS011;1616;52.394;9.756;2023-02-28T05:22:36;8.17;;;6.20;;
3207;SDS011;1616;52.394;9.756;2023-02-28T05:25:02;5.80;;;5.30;;
3207;SDS011;1616;52.394;9.756;2023-02-28T05:27:29;7.03;;;5.00;;
3207;SDS011;1616;52.394;9.756;2023-02-28T05:29:55;13.00;;;5.30;;
3207;SDS011;1616;52.394;9.756;2023-02-28T05:32:21;7.73;;;6.23;;
3207;SDS011;1616;52.394;9.756;2023-02-28T05:34:47;7.80;;;7.10;;
3207;SDS011;1616;52.394;9.756;2023-02-28T05:37:13;8.00;;;6.03;;
3207;SDS011;1616;52.394;9.756;2023-02-28T05:39:41;6.50;;;5.90;;
3207;SDS011;1616;52.394;9.756;2023-02-28T05:42:07;6.43;;;5.70;;
3207;SDS011;1616;52.394;9.756;2023-02-28T05:44:34;5.57;;;4.53;;
3207;SDS011;1616;52.394;9.756;2023-02-28T05:47:01;5.73;;;5.30;;
3207;SDS011;1616;52.394;9.756;2023-02-28T05:49:26;6.17;;;5.57;;
3207;SDS011;1616;52.394;9.756;2023-02-28T05:51:52;11.80;;;4.80;;
3207;SDS011;1616;52.394;9.756;2023-02-28T05:54:17;9.73;;;4.53;;
3207;SDS011;1616;52.394;9.756;2023-02-28T05:56:43;8.13;;;6.10;;
3207;SDS011;1616;52.394;9.756;2023-02-28T05:59:11;6.63;;;5.10;;
3207;SDS011;1616;52.394;9.756;2023-02-28T06:01:41;7.37;;;4.80;;
3207;SDS011;1616;52.394;9.756;2023-02-28T06:04:13;10.90;;;4.80;;
3207;SDS011;1616;52.394;9.756;2023-02-28T06:06:43;8.40;;;6.20;;
3207;SDS011;1616;52.394;9.756;2023-02-28T06:09:10;8.27;;;6.43;;
3207;SDS011;1616;52.394;9.756;2023-02-28T06:11:35;6.93;;;5.77;;
3207;SDS011;1616;52.394;9.756;2023-02-28T06:14:02;5.83;;;5.17;;
3207;SDS011;1616;52.394;9.756;2023-02-28T06:16:29;17.50;;;5.97;;
3207;SDS011;1616;52.394;9.756;2023-02-28T06:18:59;5.60;;;5.20;;
3207;SDS011;1616;52.394;9.756;2023-02-28T06:21:28;7.37;;;5.50;;
3207;SDS011;1616;52.394;9.756;2023-02-28T06:23:53;9.83;;;5.83;;
3207;SDS011;1616;52.394;9.756;2023-02-28T06:26:20;13.50;;;5.70;;
3207;SDS011;1616;52.394;9.756;2023-02-28T06:28:46;8.83;;;5.87;;
3207;SDS011;1616;52.394;9.756;2023-02-28T06:31:12;6.30;;;5.70;;
3207;SDS011;1616;52.394;9.756;2023-02-28T06:33:40;7.80;;;6.00;;
3207;SDS011;1616;52.394;9.756;2023-02-28T06:36:08;18.53;;;6.53;;
3207;SDS011;1616;52.394;9.756;2023-02-28T06:38:34;9.47;;;5.27;;
3207;SDS011;1616;52.394;9.756;2023-02-28T06:41:01;12.73;;;5.10;;
3207;SDS011;1616;52.394;9.756;2023-02-28T06:43:28;6.73;;;5.33;;
3207;SDS011;1616;52.394;9.756;2023-02-28T06:45:56;6.57;;;6.00;;
3207;SDS011;1616;52.394;9.756;2023-02-28T06:48:23;8.90;;;6.50;;
3207;SDS011;1616;52.394;9.756;2023-02-28T06:50:50;6.10;;;5.50;;
3207;SDS011;1616;52.394;9.756;2023-02-28T06:53:17;18.27;;;6.20;;
3207;SDS011;1616;52.394;9.756;2023-02-28T06:55:43;17.60;;;6.13;;
3207;SDS011;1616;52.394;9.756;2023-02-28T06:58:09;7.70;;;5.40;;
3207;SDS011;1616;52.394;9.756;2023-02-28T07:00:41;10.87;;;5.00;;
3207;SDS011;1616;52.394;9.756;2023-02-28T07:03:07;5.47;;;4.80;;
3207;SDS011;1616;52.394;9.756;2023-02-28T07:05:36;9.00;;;5.43;;
3207;SDS011;1616;52.394;9.756;2023-02-28T07:08:04;10.10;;;6.10;;
3207;SDS011;1616;52.394;9.756;2023-02-28T07:10:31;5.87;;;5.53;;
3207;SDS011;1616;52.394;9.756;2023-02-28T07:12:58;7.23;;;5.30;;
3207;SDS011;1616;52.394;9.756;2023-02-28T07:15:24;5.83;;;5.30;;
3207;SDS011;1616;52.394;9.756;2023-02-28T07:17:50;5.63;;;5.10;;
3207;SDS011;1616;52.394;9.756;2023-02-28T07:20:16;7.80;;;5.37;;
3207;SDS011;1616;52.394;9.756;2023-02-28T07:22:41;6.30;;;5.77;;
3207;SDS011;1616;52.394;9.756;2023-02-28T07:25:07;6.70;;;5.87;;
3207;SDS011;1616;52.394;9.756;2023-02-28T07:27:33;6.00;;;5.40;;
3207;SDS011;1616;52.394;9.756;2023-02-28T07:29:59;6.10;;;5.60;;
3207;SDS011;1616;52.394;9.756;2023-02-28T07:32:27;6.40;;;5.17;;
3207;SDS011;1616;52.394;9.756;2023-02-28T07:34:53;7.90;;;5.50;;
3207;SDS011;1616;52.394;9.756;2023-02-28T07:37:19;5.30;;;4.90;;
3207;SDS011;1616;52.394;9.756;2023-02-28T07:39:45;5.17;;;4.73;;
3207;SDS011;1616;52.394;9.756;2023-02-28T07:42:10;5.50;;;5.00;;
3207;SDS011;1616;52.394;9.756;2023-02-28T07:44:38;4.40;;;4.00;;
3207;SDS011;1616;52.394;9.756;2023-02-28T07:47:09;5.00;;;4.60;;
3207;SDS011;1616;52.394;9.756;2023-02-28T07:49:35;6.63;;;5.43;;
3207;SDS011;1616;52.394;9.756;2023-02-28T07:52:02;6.30;;;5.80;;
3207;SDS011;1616;52.394;9.756;2023-02-28T07:54:29;6.67;;;5.60;;
3207;SDS011;1616;52.394;9.756;2023-02-28T07:56:55;7.13;;;6.43;;
3207;SDS011;1616;52.394;9.756;2023-02-28T07:59:21;13.40;;;7.20;;
3207;SDS011;1616;52.394;9.756;2023-02-28T08:01:46;5.10;;;4.80;;
3207;SDS011;1616;52.394;9.756;2023-02-28T08:04:14;5.20;;;4.80;;
3207;SDS011;1616;52.394;9.756;2023-02-28T08:06:40;5.37;;;4.97;;
3207;SDS011;1616;52.394;9.756;2023-02-28T08:09:05;5.83;;;5.00;;
3207;SDS011;1616;52.394;9.756;2023-02-28T08:11:31;5.60;;;5.07;;
3207;SDS011;1616;52.394;9.756;2023-02-28T08:13:57;5.43;;;4.23;;
3207;SDS011;1616;52.394;9.756;2023-02-28T08:16:23;6.40;;;4.13;;
3207;SDS011;1616;52.394;9.756;2023-02-28T08:18:49;9.77;;;4.20;;
3207;SDS011;1616;52.394;9.756;2023-02-28T08:21:17;4.63;;;4.33;;
3207;SDS011;1616;52.394;9.756;2023-02-28T08:23:46;5.20;;;4.70;;
3207;SDS011;1616;52.394;9.756;2023-02-28T08:26:16;4.53;;;4.20;;
3207;SDS011;1616;52.394;9.756;2023-02-28T08:28:42;3.93;;;3.67;;
3207;SDS011;1616;52.394;9.756;2023-02-28T08:31:11;4.23;;;3.87;;
3207;SDS011;1616;52.394;9.756;2023-02-28T08:33:40;3.77;;;3.57;;
3207;SDS011;1616;52.394;9.756;2023-02-28T08:36:06;4.10;;;3.90;;
3207;SDS011;1616;52.394;9.756;2023-02-28T08:38:33;3.77;;;3.47;;
3207;SDS011;1616;52.394;9.756;2023-02-28T08:40:59;3.93;;;3.47;;
3207;SDS011;1616;52.394;9.756;2023-02-28T08:43:27;3.27;;;3.07;;
3207;SDS011;1616;52.394;9.756;2023-02-28T08:45:54;3.40;;;3.20;;
3207;SDS011;1616;52.394;9.756;2023-02-28T08:48:24;6.03;;;2.73;;
3207;SDS011;1616;52.394;9.756;2023-02-28T08:53:28;3.07;;;2.80;;
3207;SDS011;1616;52.394;9.756;2023-02-28T08:55:58;3.10;;;2.90;;
3207;SDS011;1616;52.394;9.756;2023-02-28T08:58:25;3.50;;;3.23;;
3207;SDS011;1616;52.394;9.756;2023-02-28T09:00:51;5.73;;;2.93;;
3207;SDS011;1616;52.394;9.756;2023-02-28T09:03:17;2.73;;;1.90;;
3207;SDS011;1616;52.394;9.756;2023-02-28T09:05:52;5.33;;;2.83;;
3207;SDS011;1616;52.394;9.756;2023-02-28T09:08:22;2.47;;;1.97;;
3207;SDS011;1616;52.394;9.756;2023-02-28T09:10:49;4.07;;;1.80;;
3207;SDS011;1616;52.394;9.756;2023-02-28T09:13:15;1.73;;;1.63;;
3207;SDS011;1616;52.394;9.756;2023-02-28T09:15:40;1.40;;;1.30;;
3207;SDS011;1616;52.394;9.756;2023-02-28T09:18:06;1.53;;;1.37;;
3207;SDS011;1616;52.394;9.756;2023-02-28T09:20:32;1.80;;;1.60;;
3207;SDS011;1616;52.394;9.756;2023-02-28T09:22:58;1.40;;;1.30;;
3207;SDS011;1616;52.394;9.756;2023-02-28T09:25:24;1.30;;;1.20;;
3207;SDS011;1616;52.394;9.756;2023-02-28T09:27:50;1.27;;;1.17;;
3207;SDS011;1616;52.394;9.756;2023-02-28T09:30:16;1.50;;;1.40;;
3207;SDS011;1616;52.394;9.756;2023-02-28T09:32:42;2.43;;;1.50;;
3207;SDS011;1616;52.394;9.756;2023-02-28T09:35:08;1.30;;;1.20;;
3207;SDS011;1616;52.394;9.756;2023-02-28T09:37:38;1.40;;;1.10;;
3207;SDS011;1616;52.394;9.756;2023-02-28T09:40:04;1.30;;;1.20;;
3207;SDS011;1616;52.394;9.756;2023-02-28T09:42:31;1.30;;;1.10;;
3207;SDS011;1616;52.394;9.756;2023-02-28T09:44:59;1.90;;;1.07;;
3207;SDS011;1616;52.394;9.756;2023-02-28T09:47:31;1.40;;;1.30;;
3207;SDS011;1616;52.394;9.756;2023-02-28T09:50:03;1.40;;;1.20;;
3207;SDS011;1616;52.394;9.756;2023-02-28T09:52:39;1.87;;;1.50;;
3207;SDS011;1616;52.394;9.756;2023-02-28T09:55:42;1.20;;;1.10;;
3207;SDS011;1616;52.394;9.756;2023-02-28T09:58:18;1.30;;;1.20;;
3207;SDS011;1616;52.394;9.756;2023-02-28T10:00:55;1.53;;;1.27;;
3207;SDS011;1616;52.394;9.756;2023-02-28T10:03:36;2.73;;;1.40;;
3207;SDS011;1616;52.394;9.756;2023-02-28T10:06:08;1.53;;;1.43;;
3207;SDS011;1616;52.394;9.756;2023-02-28T10:08:57;2.83;;;1.40;;
3207;SDS011;1616;52.394;9.756;2023-02-28T10:11:29;1.57;;;1.17;;
3207;SDS011;1616;52.394;9.756;2023-02-28T10:16:42;2.17;;;1.20;;
3207;SDS011;1616;52.394;9.756;2023-02-28T10:19:15;2.10;;;1.00;;
3207;SDS011;1616;52.394;9.756;2023-02-28T10:21:47;1.20;;;1.10;;
3207;SDS011;1616;52.394;9.756;2023-02-28T10:24:35;1.20;;;1.10;;
3207;SDS011;1616;52.394;9.756;2023-02-28T10:27:17;1.37;;;1.10;;
3207;SDS011;1616;52.394;9.756;2023-02-28T10:29:45;1.20;;;1.00;;
3207;SDS011;1616;52.394;9.756;2023-02-28T10:32:14;1.67;;;1.13;;
3207;SDS011;1616;52.394;9.756;2023-02-28T10:34:43;1.10;;;1.00;;
3207;SDS011;1616;52.394;9.756;2023-02-28T10:37:10;1.13;;;1.00;;
3207;SDS011;1616;52.394;9.756;2023-02-28T10:39:42;1.07;;;0.90;;
3207;SDS011;1616;52.394;9.756;2023-02-28T10:42:43;1.10;;;1.00;;
3207;SDS011;1616;52.394;9.756;2023-02-28T10:47:33;1.33;;;1.00;;
3207;SDS011;1616;52.394;9.756;2023-02-28T10:50:01;1.10;;;0.97;;
3207;SDS011;1616;52.394;9.756;2023-02-28T10:52:35;1.27;;;1.10;;
3207;SDS011;1616;52.394;9.756;2023-02-28T10:55:20;1.37;;;1.10;;
3207;SDS011;1616;52.394;9.756;2023-02-28T10:57:47;1.57;;;0.83;;
3207;SDS011;1616;52.394;9.756;2023-02-28T11:00:15;1.10;;;0.80;;
3207;SDS011;1616;52.394;9.756;2023-02-28T11:02:47;1.03;;;0.80;;
3207;SDS011;1616;52.394;9.756;2023-02-28T11:05:32;1.10;;;0.80;;
3207;SDS011;1616;52.394;9.756;2023-02-28T11:10:44;1.10;;;0.80;;
3207;SDS011;1616;52.394;9.756;2023-02-28T11:13:20;1.30;;;0.63;;
3207;SDS011;1616;52.394;9.756;2023-02-28T11:15:56;1.00;;;0.70;;
3207;SDS011;1616;52.394;9.756;2023-02-28T11:21:18;1.30;;;0.80;;
3207;SDS011;1616;52.394;9.756;2023-02-28T11:24:22;1.37;;;0.90;;
3207;SDS011;1616;52.394;9.756;2023-02-28T11:26:49;1.20;;;0.83;;
3207;SDS011;1616;52.394;9.756;2023-02-28T11:32:04;1.20;;;0.80;;
3207;SDS011;1616;52.394;9.756;2023-02-28T11:34:34;1.20;;;0.77;;
3207;SDS011;1616;52.394;9.756;2023-02-28T11:37:02;1.40;;;0.70;;
3207;SDS011;1616;52.394;9.756;2023-02-28T11:39:33;1.00;;;0.70;;
3207;SDS011;1616;52.394;9.756;2023-02-28T11:45:15;1.63;;;0.80;;
3207;SDS011;1616;52.394;9.756;2023-02-28T11:53:17;1.27;;;0.80;;
3207;SDS011;1616;52.394;9.756;2023-02-28T11:55:45;1.10;;;0.80;;
3207;SDS011;1616;52.394;9.756;2023-02-28T12:01:21;1.30;;;0.90;;
3207;SDS011;1616;52.394;9.756;2023-02-28T12:09:53;1.20;;;0.90;;
3207;SDS011;1616;52.394;9.756;2023-02-28T12:18:17;3.53;;;1.00;;
3207;SDS011;1616;52.394;9.756;2023-02-28T12:21:08;1.30;;;1.10;;
3207;SDS011;1616;52.394;9.756;2023-02-28T12:23:56;1.63;;;1.07;;
3207;SDS011;1616;52.394;9.756;2023-02-28T12:26:44;1.20;;;1.10;;
3207;SDS011;1616;52.394;9.756;2023-02-28T12:29:25;1.10;;;0.97;;
3207;SDS011;1616;52.394;9.756;2023-02-28T12:32:09;1.30;;;0.90;;
3207;SDS011;1616;52.394;9.756;2023-02-28T12:34:42;1.23;;;1.13;;
3207;SDS011;1616;52.394;9.756;2023-02-28T12:37:27;1.17;;;1.07;;
3207;SDS011;1616;52.394;9.756;2023-02-28T12:40:09;1.27;;;0.93;;
3207;SDS011;1616;52.394;9.756;2023-02-28T12:42:43;1.30;;;1.20;;
3207;SDS011;1616;52.394;9.756;2023-02-28T12:45:17;2.47;;;1.40;;
3207;SDS011;1616;52.394;9.756;2023-02-28T12:47:46;1.80;;;1.60;;
3207;SDS011;1616;52.394;9.756;2023-02-28T12:50:17;3.73;;;1.90;;
3207;SDS011;1616;52.394;9.756;2023-02-28T12:52:48;1.30;;;1.10;;
3207;SDS011;1616;52.394;9.756;2023-02-28T13:01:33;2.67;;;1.60;;
3207;SDS011;1616;52.394;9.756;2023-02-28T13:06:28;4.03;;;1.20;;
3207;SDS011;1616;52.394;9.756;2023-02-28T13:09:16;1.40;;;1.30;;
3207;SDS011;1616;52.394;9.756;2023-02-28T13:11:46;1.53;;;1.40;;
3207;SDS011;1616;52.394;9.756;2023-02-28T13:14:22;1.57;;;1.47;;
3207;SDS011;1616;52.394;9.756;2023-02-28T13:19:34;1.50;;;1.40;;
3207;SDS011;1616;52.394;9.756;2023-02-28T13:22:09;1.40;;;1.30;;
3207;SDS011;1616;52.394;9.756;2023-02-28T13:24:46;2.10;;;1.40;;
3207;SDS011;1616;52.394;9.756;2023-02-28T13:29:40;1.40;;;1.30;;
3207;SDS011;1616;52.394;9.756;2023-02-28T13:34:47;2.47;;;1.70;;
3207;SDS011;1616;52.394;9.756;2023-02-28T13:39:56;2.37;;;1.40;;
3207;SDS011;1616;52.394;9.756;2023-02-28T13:47:40;3.47;;;1.70;;
3207;SDS011;1616;52.394;9.756;2023-02-28T13:50:15;1.63;;;1.53;;
3207;SDS011;1616;52.394;9.756;2023-02-28T14:06:29;1.80;;;1.43;;
3207;SDS011;1616;52.394;9.756;2023-02-28T14:09:00;1.57;;;1.33;;
3207;SDS011;1616;52.394;9.756;2023-02-28T14:11:39;5.10;;;1.50;;
3207;SDS011;1616;52.394;9.756;2023-02-28T14:14:07;1.60;;;1.43;;
3207;SDS011;1616;52.394;9.756;2023-02-28T14:16:47;2.43;;;1.40;;
3207;SDS011;1616;52.394;9.756;2023-02-28T14:19:25;2.00;;;1.30;;
3207;SDS011;1616;52.394;9.756;2023-02-28T14:22:02;3.20;;;1.50;;
3207;SDS011;1616;52.394;9.756;2023-02-28T14:36:20;1.43;;;1.30;;
3207;SDS011;1616;52.394;9.756;2023-02-28T14:38:54;1.70;;;1.23;;
3207;SDS011;1616;52.394;9.756;2023-02-28T14:41:33;2.20;;;1.47;;
3207;SDS011;1616;52.394;9.756;2023-02-28T14:44:20;6.30;;;1.50;;
3207;SDS011;1616;52.394;9.756;2023-02-28T14:46:49;1.97;;;1.40;;
3207;SDS011;1616;52.394;9.756;2023-02-28T14:49:30;1.40;;;1.30;;
3207;SDS011;1616;52.394;9.756;2023-02-28T14:54:35;1.70;;;1.60;;
3207;SDS011;1616;52.394;9.756;2023-02-28T14:57:02;1.67;;;1.50;;
3207;SDS011;1616;52.394;9.756;2023-02-28T14:59:29;1.63;;;1.53;;
3207;SDS011;1616;52.394;9.756;2023-02-28T15:02:16;1.40;;;1.30;;
3207;SDS011;1616;52.394;9.756;2023-02-28T15:04:42;1.40;;;1.30;;
3207;SDS011;1616;52.394;9.756;2023-02-28T15:07:08;1.53;;;1.40;;
3207;SDS011;1616;52.394;9.756;2023-02-28T15:09:34;3.30;;;1.50;;
3207;SDS011;1616;52.394;9.756;2023-02-28T15:12:00;2.00;;;1.23;;
3207;SDS011;1616;52.394;9.756;2023-02-28T15:14:27;2.57;;;1.70;;
3207;SDS011;1616;52.394;9.756;2023-02-28T15:16:57;1.67;;;1.50;;
3207;SDS011;1616;52.394;9.756;2023-02-28T15:19:28;6.70;;;1.53;;
3207;SDS011;1616;52.394;9.756;2023-02-28T15:22:12;2.10;;;1.40;;
3207;SDS011;1616;52.394;9.756;2023-02-28T15:27:26;1.30;;;1.20;;
3207;SDS011;1616;52.394;9.756;2023-02-28T15:29:56;1.33;;;1.20;;
3207;SDS011;1616;52.394;9.756;2023-02-28T15:34:51;2.53;;;1.50;;
3207;SDS011;1616;52.394;9.756;2023-02-28T15:40:41;1.53;;;1.37;;
3207;SDS011;1616;52.394;9.756;2023-02-28T15:45:45;1.60;;;1.50;;
3207;SDS011;1616;52.394;9.756;2023-02-28T15:48:29;2.70;;;1.70;;
3207;SDS011;1616;52.394;9.756;2023-02-28T15:51:18;1.60;;;1.50;;
3207;SDS011;1616;52.394;9.756;2023-02-28T15:56:19;2.00;;;1.90;;
3207;SDS011;1616;52.394;9.756;2023-02-28T15:58:48;2.00;;;1.80;;
3207;SDS011;1616;52.394;9.756;2023-02-28T16:01:19;2.00;;;1.80;;
3207;SDS011;1616;52.394;9.756;2023-02-28T16:03:57;1.93;;;1.70;;
3207;SDS011;1616;52.394;9.756;2023-02-28T16:06:39;3.43;;;2.03;;
3207;SDS011;1616;52.394;9.756;2023-02-28T16:09:11;2.70;;;1.87;;
3207;SDS011;1616;52.394;9.756;2023-02-28T16:11:43;1.80;;;1.70;;
3207;SDS011;1616;52.394;9.756;2023-02-28T16:14:18;4.57;;;2.73;;
3207;SDS011;1616;52.394;9.756;2023-02-28T16:16:50;3.90;;;2.57;;
3207;SDS011;1616;52.394;9.756;2023-02-28T16:19:17;2.90;;;2.27;;
3207;SDS011;1616;52.394;9.756;2023-02-28T16:21:44;3.37;;;1.90;;
3207;SDS011;1616;52.394;9.756;2023-02-28T16:24:10;3.23;;;2.40;;
3207;SDS011;1616;52.394;9.756;2023-02-28T16:26:35;5.40;;;3.13;;
3207;SDS011;1616;52.394;9.756;2023-02-28T16:29:04;6.60;;;2.90;;
3207;SDS011;1616;52.394;9.756;2023-02-28T16:31:32;4.30;;;3.87;;
3207;SDS011;1616;52.394;9.756;2023-02-28T16:34:01;3.70;;;2.53;;
3207;SDS011;1616;52.394;9.756;2023-02-28T16:36:28;2.87;;;2.67;;
3207;SDS011;1616;52.394;9.756;2023-02-28T16:38:55;2.20;;;2.00;;
3207;SDS011;1616;52.394;9.756;2023-02-28T16:41:23;3.03;;;2.40;;
3207;SDS011;1616;52.394;9.756;2023-02-28T16:43:51;3.07;;;2.20;;
3207;SDS011;1616;52.394;9.756;2023-02-28T16:46:23;3.10;;;2.77;;
3207;SDS011;1616;52.394;9.756;2023-02-28T16:48:52;2.13;;;1.90;;
3207;SDS011;1616;52.394;9.756;2023-02-28T16:51:18;2.70;;;2.00;;
3207;SDS011;1616;52.394;9.756;2023-02-28T16:53:44;3.20;;;2.90;;
3207;SDS011;1616;52.394;9.756;2023-02-28T16:56:17;19.77;;;10.73;;
3207;SDS011;1616;52.394;9.756;2023-02-28T16:58:45;4.13;;;3.77;;
3207;SDS011;1616;52.394;9.756;2023-02-28T17:01:11;3.13;;;2.83;;
3207;SDS011;1616;52.394;9.756;2023-02-28T17:03:37;4.70;;;2.57;;
3207;SDS011;1616;52.394;9.756;2023-02-28T17:06:03;3.47;;;2.30;;
3207;SDS011;1616;52.394;9.756;2023-02-28T17:08:30;2.60;;;2.40;;
3207;SDS011;1616;52.394;9.756;2023-02-28T17:10:57;3.40;;;2.40;;
3207;SDS011;1616;52.394;9.756;2023-02-28T17:13:23;2.40;;;2.20;;
3207;SDS011;1616;52.394;9.756;2023-02-28T17:15:49;3.37;;;2.50;;
3207;SDS011;1616;52.394;9.756;2023-02-28T17:18:16;3.33;;;2.50;;
3207;SDS011;1616;52.394;9.756;2023-02-28T17:20:46;2.17;;;2.00;;
3207;SDS011;1616;52.394;9.756;2023-02-28T17:23:12;4.00;;;2.83;;
3207;SDS011;1616;52.394;9.756;2023-02-28T17:25:38;4.73;;;2.70;;
3207;SDS011;1616;52.394;9.756;2023-02-28T17:28:03;2.77;;;2.07;;
3207;SDS011;1616;52.394;9.756;2023-02-28T17:30:31;5.70;;;2.53;;
3207;SDS011;1616;52.394;9.756;2023-02-28T17:32:59;3.10;;;2.87;;
3207;SDS011;1616;52.394;9.756;2023-02-28T17:35:24;6.20;;;3.17;;
3207;SDS011;1616;52.394;9.756;2023-02-28T17:37:52;3.27;;;2.90;;
3207;SDS011;1616;52.394;9.756;2023-02-28T17:40:21;4.23;;;2.67;;
3207;SDS011;1616;52.394;9.756;2023-02-28T17:42:48;5.83;;;5.37;;
3207;SDS011;1616;52.394;9.756;2023-02-28T17:45:14;3.50;;;3.30;;
3207;SDS011;1616;52.394;9.756;2023-02-28T17:47:41;5.33;;;4.90;;
3207;SDS011;1616;52.394;9.756;2023-02-28T17:50:18;6.87;;;4.57;;